createdAt,value
2018-09-12T00:00:37.468Z,6.27
2018-09-12T00:03:06.227Z,6.17
2018-09-12T00:05:34.843Z,6.00
2018-09-12T00:08:03.250Z,6.03
2018-09-12T00:10:31.759Z,6.50
2018-09-12T00:13:00.158Z,5.90
2018-09-12T00:15:28.640Z,5.87
2018-09-12T00:17:57.124Z,6.77
2018-09-12T00:20:25.564Z,5.50
2018-09-12T00:22:53.973Z,5.57
2018-09-12T00:25:22.610Z,5.20
2018-09-12T00:27:51.066Z,5.93
2018-09-12T00:30:19.647Z,5.67
2018-09-12T00:32:48.230Z,5.03
2018-09-12T00:35:16.717Z,5.33
2018-09-12T00:37:45.141Z,5.80
2018-09-12T00:40:13.669Z,5.83
2018-09-12T00:42:42.239Z,6.00
2018-09-12T00:45:10.755Z,6.00
2018-09-12T00:47:39.292Z,5.90
2018-09-12T00:50:09.137Z,5.77
2018-09-12T00:52:37.709Z,6.00
2018-09-12T00:55:07.185Z,6.83
2018-09-12T00:57:35.930Z,5.83
2018-09-12T01:00:04.399Z,5.93
2018-09-12T01:02:32.886Z,5.43
2018-09-12T01:05:01.338Z,5.83
2018-09-12T01:07:29.804Z,5.53
2018-09-12T01:09:58.228Z,5.73
2018-09-12T01:12:26.660Z,6.00
2018-09-12T01:14:55.235Z,5.63
2018-09-12T01:17:23.739Z,5.63
2018-09-12T01:19:52.159Z,5.87
2018-09-12T01:22:20.606Z,5.47
2018-09-12T01:24:49.092Z,5.60
2018-09-12T01:27:17.497Z,5.43
2018-09-12T01:29:45.971Z,5.63
2018-09-12T01:32:14.398Z,6.30
2018-09-12T01:34:42.915Z,5.83
2018-09-12T01:37:11.428Z,5.70
2018-09-12T01:39:39.885Z,4.97
2018-09-12T01:42:08.277Z,6.43
2018-09-12T01:44:36.728Z,5.13
2018-09-12T01:47:05.155Z,5.37
2018-09-12T01:49:33.691Z,5.10
2018-09-12T01:52:02.153Z,6.00
2018-09-12T01:54:30.653Z,5.80
2018-09-12T01:56:59.062Z,5.70
2018-09-12T01:59:27.518Z,5.97
2018-09-12T02:01:56.087Z,5.67
2018-09-12T02:04:24.560Z,5.90
2018-09-12T02:06:52.940Z,6.07
2018-09-12T02:09:21.388Z,5.63
2018-09-12T02:11:49.822Z,5.97
2018-09-12T02:14:18.227Z,5.80
2018-09-12T02:16:46.656Z,5.63
2018-09-12T02:19:15.070Z,5.80
2018-09-12T02:21:43.706Z,6.43
2018-09-12T02:24:12.191Z,5.83
2018-09-12T02:26:40.803Z,5.37
2018-09-12T02:29:09.249Z,6.07
2018-09-12T02:31:37.882Z,5.00
2018-09-12T02:34:06.298Z,6.20
2018-09-12T02:36:34.762Z,5.23
2018-09-12T02:39:03.202Z,5.53
2018-09-12T02:41:31.646Z,5.70
2018-09-12T02:44:00.153Z,5.60
2018-09-12T02:46:28.626Z,6.40
2018-09-12T02:48:57.238Z,5.80
2018-09-12T02:51:25.756Z,5.33
2018-09-12T02:53:54.169Z,5.77
2018-09-12T02:56:22.741Z,5.43
2018-09-12T02:58:51.563Z,5.80
2018-09-12T03:01:20.083Z,6.23
2018-09-12T03:03:48.505Z,5.80
2018-09-12T03:06:16.942Z,4.90
2018-09-12T03:08:45.394Z,5.30
2018-09-12T03:11:13.853Z,5.40
2018-09-12T03:13:42.303Z,5.63
2018-09-12T03:16:10.741Z,5.90
2018-09-12T03:18:39.262Z,6.03
2018-09-12T03:21:07.831Z,5.97
2018-09-12T03:23:36.342Z,5.93
2018-09-12T03:26:04.774Z,5.70
2018-09-12T03:28:33.181Z,5.40
2018-09-12T03:31:01.681Z,5.40
2018-09-12T03:33:30.251Z,5.67
2018-09-12T03:35:58.955Z,5.77
2018-09-12T03:38:27.396Z,5.17
2018-09-12T03:40:56.317Z,4.90
2018-09-12T03:43:24.751Z,5.40
2018-09-12T03:45:53.483Z,5.27
2018-09-12T03:48:21.926Z,6.00
2018-09-12T03:50:50.374Z,5.10
2018-09-12T03:53:18.838Z,5.47
2018-09-12T03:55:47.354Z,5.47
2018-09-12T03:58:15.966Z,5.47
2018-09-12T04:00:44.367Z,5.67
2018-09-12T04:03:12.804Z,5.20
2018-09-12T04:05:41.420Z,5.30
2018-09-12T04:08:10.295Z,5.10
2018-09-12T04:10:38.707Z,4.93
2018-09-12T04:13:07.323Z,5.30
2018-09-12T04:15:35.798Z,5.33
2018-09-12T04:18:04.227Z,6.13
2018-09-12T04:20:32.799Z,5.10
2018-09-12T04:23:01.268Z,5.67
2018-09-12T04:25:29.895Z,5.87
2018-09-12T04:27:58.347Z,5.60
2018-09-12T04:30:26.906Z,6.33
2018-09-12T04:32:55.325Z,5.53
2018-09-12T04:35:23.746Z,5.30
2018-09-12T04:37:52.366Z,6.57
2018-09-12T04:40:21.088Z,5.50
2018-09-12T04:42:49.553Z,6.07
2018-09-12T04:45:18.213Z,5.40
2018-09-12T04:47:46.809Z,7.13
2018-09-12T04:50:15.187Z,6.90
2018-09-12T04:52:43.657Z,6.30
2018-09-12T04:55:12.262Z,6.33
2018-09-12T04:57:40.823Z,6.10
2018-09-12T05:00:09.456Z,6.40
2018-09-12T05:02:37.986Z,6.90
2018-09-12T05:05:06.630Z,6.30
2018-09-12T05:07:35.090Z,6.17
2018-09-12T05:10:03.543Z,6.80
2018-09-12T05:12:32.171Z,6.87
2018-09-12T05:15:00.791Z,7.97
2018-09-12T05:17:29.431Z,8.57
2018-09-12T05:19:57.959Z,7.87
2018-09-12T05:22:26.846Z,6.93
2018-09-12T05:24:55.751Z,6.57
2018-09-12T05:27:24.402Z,6.13
2018-09-12T05:29:52.933Z,6.10
2018-09-12T05:32:21.376Z,5.27
2018-09-12T05:34:50.170Z,5.70
2018-09-12T05:37:18.586Z,6.33
2018-09-12T05:39:47.134Z,5.70
2018-09-12T05:42:16.018Z,6.20
2018-09-12T05:44:44.512Z,6.43
2018-09-12T05:47:12.943Z,6.27
2018-09-12T05:49:41.770Z,7.00
2018-09-12T05:52:10.334Z,6.50
2018-09-12T05:54:38.969Z,6.83
2018-09-12T05:57:07.399Z,7.00
2018-09-12T05:59:35.847Z,7.53
2018-09-12T06:02:04.259Z,7.33
2018-09-12T06:04:32.685Z,7.03
2018-09-12T06:07:01.243Z,7.53
2018-09-12T06:09:29.774Z,7.13
2018-09-12T06:11:58.256Z,7.47
2018-09-12T06:14:26.834Z,7.20
2018-09-12T06:16:55.370Z,7.07
2018-09-12T06:19:23.795Z,6.63
2018-09-12T06:21:52.279Z,6.40
2018-09-12T06:24:20.731Z,6.63
2018-09-12T06:26:49.273Z,6.67
2018-09-12T06:29:17.730Z,6.23
2018-09-12T06:31:46.233Z,6.50
2018-09-12T06:34:14.696Z,5.57
2018-09-12T06:36:43.197Z,4.87
2018-09-12T06:39:12.934Z,5.20
2018-09-12T06:41:41.554Z,4.33
2018-09-12T06:44:10.068Z,4.97
2018-09-12T06:46:38.621Z,4.77
2018-09-12T06:49:07.518Z,4.37
2018-09-12T06:51:36.021Z,4.80
2018-09-12T06:54:04.834Z,5.13
2018-09-12T06:56:33.667Z,5.40
2018-09-12T06:59:02.177Z,4.27
2018-09-12T07:01:30.618Z,4.73
2018-09-12T07:03:59.139Z,4.87
2018-09-12T07:06:27.671Z,5.23
2018-09-12T07:08:56.267Z,4.47
2018-09-12T07:11:24.894Z,4.73
2018-09-12T07:13:53.342Z,4.50
2018-09-12T07:16:21.843Z,4.23
2018-09-12T07:18:50.435Z,4.50
2018-09-12T07:21:18.961Z,5.17
2018-09-12T07:23:47.391Z,4.53
2018-09-12T07:26:16.059Z,5.47
2018-09-12T07:28:44.551Z,4.77
2018-09-12T07:31:13.691Z,4.30
2018-09-12T07:33:42.123Z,4.73
2018-09-12T07:36:10.583Z,4.30
2018-09-12T07:38:39.081Z,3.87
2018-09-12T07:41:08.106Z,4.12
2018-09-12T07:43:36.522Z,3.70
2018-09-12T07:46:05.513Z,3.77
2018-09-12T07:48:34.610Z,4.00
2018-09-12T07:51:03.686Z,3.92
2018-09-12T07:53:32.664Z,5.20
2018-09-12T07:56:01.801Z,4.30
2018-09-12T07:58:30.916Z,4.00
2018-09-12T08:00:59.944Z,3.52
2018-09-12T08:03:28.942Z,4.30
2018-09-12T08:05:57.960Z,4.30
2018-09-12T08:08:26.953Z,4.67
2018-09-12T08:10:55.921Z,5.00
2018-09-12T08:13:24.902Z,3.85
2018-09-12T08:15:53.866Z,4.15
2018-09-12T08:18:22.838Z,3.90
2018-09-12T08:20:51.868Z,4.60
2018-09-12T08:23:20.920Z,4.58
2018-09-12T08:25:49.989Z,4.30
2018-09-12T08:28:18.974Z,3.72
2018-09-12T08:30:48.197Z,5.87
2018-09-12T08:33:17.319Z,4.83
2018-09-12T08:35:46.789Z,4.60
2018-09-12T08:38:15.773Z,4.78
2018-09-12T08:40:44.787Z,4.28
2018-09-12T08:43:13.781Z,4.37
2018-09-12T08:45:42.935Z,4.95
2018-09-12T08:48:11.985Z,3.92
2018-09-12T08:50:40.947Z,5.12
2018-09-12T08:53:10.178Z,5.28
2018-09-12T08:55:39.307Z,4.72
2018-09-12T08:58:08.424Z,4.70
2018-09-12T09:00:37.431Z,4.20
2018-09-12T09:03:07.226Z,4.10
2018-09-12T09:05:36.218Z,3.80
2018-09-12T09:08:05.178Z,3.83
2018-09-12T09:10:34.303Z,3.75
2018-09-12T09:13:03.387Z,4.50
2018-09-12T09:15:32.437Z,4.25
2018-09-12T09:18:01.516Z,4.40
2018-09-12T09:20:30.509Z,4.08
2018-09-12T09:22:59.511Z,4.30
2018-09-12T09:25:28.504Z,4.35
2018-09-12T09:27:57.534Z,3.98
2018-09-12T09:30:28.966Z,3.80
2018-09-12T09:32:57.970Z,4.35
2018-09-12T09:35:27.155Z,3.87
2018-09-12T09:37:56.387Z,3.58
2018-09-12T09:40:25.427Z,3.87
2018-09-12T09:42:54.456Z,3.72
2018-09-12T09:45:23.944Z,3.95
2018-09-12T09:47:53.157Z,3.72
2018-09-12T09:50:22.295Z,3.90
2018-09-12T09:52:51.315Z,3.35
2018-09-12T09:55:20.314Z,4.35
2018-09-12T09:57:49.343Z,4.03
2018-09-12T10:00:23.741Z,4.10
2018-09-12T10:05:00.328Z,4.90
2018-09-12T10:07:35.017Z,3.90
2018-09-12T10:10:06.128Z,3.80
2018-09-12T10:12:35.647Z,3.50
2018-09-12T10:15:05.647Z,3.55
2018-09-12T10:17:35.557Z,4.03
2018-09-12T10:20:04.538Z,3.60
2018-09-12T10:22:33.651Z,3.90
2018-09-12T10:25:02.679Z,4.08
2018-09-12T10:27:31.689Z,4.35
2018-09-12T10:30:00.730Z,4.00
2018-09-12T10:32:29.731Z,3.90
2018-09-12T10:34:58.687Z,3.80
2018-09-12T10:37:27.690Z,3.75
2018-09-12T10:39:56.655Z,3.80
2018-09-12T10:42:25.658Z,3.90
2018-09-12T10:44:54.806Z,4.33
2018-09-12T10:47:23.808Z,4.40
2018-09-12T10:49:53.022Z,4.60
2018-09-12T10:52:22.120Z,3.80
2018-09-12T10:54:51.077Z,3.90
2018-09-12T10:57:20.065Z,3.27
2018-09-12T10:59:49.037Z,3.72
2018-09-12T11:02:18.114Z,4.08
2018-09-12T11:04:47.236Z,3.17
2018-09-12T11:07:16.248Z,3.47
2018-09-12T11:09:45.296Z,3.17
2018-09-12T11:12:14.596Z,3.60
2018-09-12T11:14:43.576Z,3.50
2018-09-12T11:17:12.616Z,3.50
2018-09-12T11:19:41.599Z,3.67
2018-09-12T11:22:10.641Z,4.03
2018-09-12T11:24:39.662Z,3.62
2018-09-12T11:27:08.715Z,3.75
2018-09-12T11:29:37.711Z,3.80
2018-09-12T11:32:06.719Z,3.05
2018-09-12T11:34:35.694Z,3.58
2018-09-12T11:37:04.735Z,3.27
2018-09-12T11:39:33.702Z,3.22
2018-09-12T11:42:02.819Z,2.95
2018-09-12T11:44:31.979Z,3.00
2018-09-12T11:47:01.133Z,2.87
2018-09-12T11:49:30.103Z,3.20
2018-09-12T11:51:59.099Z,3.35
2018-09-12T11:54:28.294Z,3.22
2018-09-12T11:56:57.327Z,3.17
2018-09-12T11:59:26.375Z,3.22
2018-09-12T12:01:55.700Z,3.30
2018-09-12T12:04:24.658Z,2.87
2018-09-12T12:06:53.614Z,4.87
2018-09-12T12:09:22.742Z,3.37
2018-09-12T12:11:51.776Z,3.33
2018-09-12T12:14:21.148Z,2.92
2018-09-12T12:16:50.134Z,3.08
2018-09-12T12:19:19.137Z,3.50
2018-09-12T12:21:48.174Z,3.10
2018-09-12T12:24:17.314Z,3.70
2018-09-12T12:26:46.240Z,3.62
2018-09-12T12:29:15.214Z,3.37
2018-09-12T12:31:44.246Z,3.55
2018-09-12T12:34:13.324Z,3.22
2018-09-12T12:36:42.448Z,3.02
2018-09-12T12:39:12.405Z,3.17
2018-09-12T12:41:41.354Z,4.35
2018-09-12T12:44:10.405Z,3.60
2018-09-12T12:46:39.399Z,3.27
2018-09-12T12:49:08.381Z,3.37
2018-09-12T12:51:37.426Z,3.50
2018-09-12T12:54:06.588Z,3.77
2018-09-12T12:56:35.563Z,4.08
2018-09-12T12:59:04.861Z,3.72
2018-09-12T13:01:33.811Z,3.42
2018-09-12T13:04:02.958Z,3.77
2018-09-12T13:06:31.915Z,3.20
2018-09-12T13:09:01.167Z,3.80
2018-09-12T13:11:30.254Z,3.65
2018-09-12T13:13:59.251Z,3.70
2018-09-12T13:16:28.258Z,3.75
2018-09-12T13:18:57.296Z,3.17
2018-09-12T13:21:26.380Z,4.03
2018-09-12T13:23:55.650Z,3.98
2018-09-12T13:26:24.623Z,3.52
2018-09-12T13:28:53.663Z,4.60
2018-09-12T13:31:22.652Z,4.10
2018-09-12T13:33:51.624Z,3.80
2018-09-12T13:36:20.583Z,3.27
2018-09-12T13:38:49.615Z,4.00
2018-09-12T13:41:18.579Z,3.65
2018-09-12T13:43:47.660Z,3.65
2018-09-12T13:46:16.683Z,4.00
2018-09-12T13:48:45.672Z,3.98
2018-09-12T13:51:14.645Z,3.85
2018-09-12T13:53:43.665Z,3.45
2018-09-12T13:56:12.667Z,3.80
2018-09-12T13:58:41.674Z,3.92
2018-09-12T14:01:10.626Z,4.03
2018-09-12T14:03:39.632Z,3.70
2018-09-12T14:06:08.623Z,3.40
2018-09-12T14:08:37.675Z,3.42
2018-09-12T14:11:06.631Z,3.67
2018-09-12T14:13:35.652Z,3.10
2018-09-12T14:16:04.621Z,3.90
2018-09-12T14:18:33.937Z,3.37
2018-09-12T14:21:02.936Z,3.50
2018-09-12T14:23:31.929Z,3.77
2018-09-12T14:26:00.932Z,3.30
2018-09-12T14:28:29.879Z,3.55
2018-09-12T14:30:58.859Z,3.80
2018-09-12T14:33:27.912Z,4.33
2018-09-12T14:35:56.895Z,4.03
2018-09-12T14:38:25.868Z,3.40
2018-09-12T14:40:54.846Z,3.05
2018-09-12T14:43:24.045Z,3.20
2018-09-12T14:45:53.122Z,3.37
2018-09-12T14:48:22.215Z,3.60
2018-09-12T14:50:51.286Z,3.70
2018-09-12T14:53:20.397Z,4.50
2018-09-12T14:55:49.403Z,3.70
2018-09-12T14:58:18.439Z,3.22
2018-09-12T15:00:47.473Z,3.70
2018-09-12T15:03:16.499Z,3.58
2018-09-12T15:05:45.557Z,3.30
2018-09-12T15:08:14.589Z,3.40
2018-09-12T15:10:43.606Z,3.27
2018-09-12T15:13:12.723Z,3.47
2018-09-12T15:15:41.738Z,3.55
2018-09-12T15:18:10.784Z,3.58
2018-09-12T15:20:39.780Z,3.55
2018-09-12T15:23:08.743Z,3.60
2018-09-12T15:25:37.827Z,4.35
2018-09-12T15:28:07.216Z,4.83
2018-09-12T15:30:36.325Z,3.55
2018-09-12T15:33:05.324Z,3.30
2018-09-12T15:35:34.327Z,3.80
2018-09-12T15:38:03.308Z,3.65
2018-09-12T15:40:32.369Z,3.87
2018-09-12T15:43:01.479Z,4.62
2018-09-12T15:45:30.511Z,4.15
2018-09-12T15:47:59.615Z,3.83
2018-09-12T15:50:28.589Z,3.62
2018-09-12T15:52:57.657Z,3.40
2018-09-12T15:55:26.742Z,4.22
2018-09-12T15:57:55.771Z,3.27
2018-09-12T16:00:24.975Z,3.52
2018-09-12T16:02:53.986Z,3.58
2018-09-12T16:05:23.135Z,3.92
2018-09-12T16:07:52.169Z,3.75
2018-09-12T16:10:21.161Z,3.47
2018-09-12T16:12:50.144Z,7.47
2018-09-12T16:15:19.242Z,3.87
2018-09-12T16:17:48.348Z,3.83
2018-09-12T16:20:17.540Z,4.40
2018-09-12T16:22:46.650Z,3.75
2018-09-12T16:25:15.674Z,3.83
2018-09-12T16:27:44.774Z,3.62
2018-09-12T16:30:13.784Z,3.47
2018-09-12T16:32:42.923Z,3.92
2018-09-12T16:35:12.118Z,3.95
2018-09-12T16:37:41.092Z,4.50
2018-09-12T16:40:10.153Z,7.08
2018-09-12T16:42:39.739Z,4.97
2018-09-12T16:45:08.754Z,7.25
2018-09-12T16:47:37.756Z,4.83
2018-09-12T16:50:07.074Z,6.53
2018-09-12T16:52:36.068Z,4.60
2018-09-12T16:55:05.110Z,4.58
2018-09-12T16:57:34.125Z,4.03
2018-09-12T17:00:03.119Z,4.25
2018-09-12T17:02:32.441Z,4.33
2018-09-12T17:05:01.602Z,3.90
2018-09-12T17:07:30.643Z,4.00
2018-09-12T17:09:59.645Z,3.77
2018-09-12T17:12:28.941Z,3.75
2018-09-12T17:14:57.949Z,3.90
2018-09-12T17:17:26.923Z,3.67
2018-09-12T17:19:55.893Z,3.65
2018-09-12T17:22:24.957Z,4.30
2018-09-12T17:24:53.942Z,3.72
2018-09-12T17:27:23.004Z,4.10
2018-09-12T17:29:52.019Z,4.30
2018-09-12T17:32:21.175Z,4.33
2018-09-12T17:34:50.343Z,4.50
2018-09-12T17:37:19.398Z,4.35
2018-09-12T17:39:48.415Z,4.40
2018-09-12T17:42:17.470Z,4.87
2018-09-12T17:44:46.443Z,4.62
2018-09-12T17:47:15.494Z,4.53
2018-09-12T17:49:45.254Z,5.45
2018-09-12T17:52:14.248Z,27.67
2018-09-12T17:54:43.265Z,59.05
2018-09-12T17:57:12.251Z,28.02
2018-09-12T17:59:41.399Z,15.48
2018-09-12T18:02:10.432Z,8.58
2018-09-12T18:04:39.424Z,16.87
2018-09-12T18:07:08.396Z,29.40
2018-09-12T18:09:37.452Z,18.73
2018-09-12T18:12:06.518Z,14.23
2018-09-12T18:14:35.513Z,12.30
2018-09-12T18:17:04.734Z,10.95
2018-09-12T18:19:33.936Z,52.53
2018-09-12T18:22:02.968Z,62.30
2018-09-12T18:24:32.976Z,30.05
2018-09-12T18:27:02.066Z,11.95
2018-09-12T18:29:31.183Z,8.95
2018-09-12T18:32:00.219Z,9.15
2018-09-12T18:34:29.194Z,9.10
2018-09-12T18:36:58.275Z,7.67
2018-09-12T18:39:27.411Z,8.78
2018-09-12T18:41:56.611Z,8.78
2018-09-12T18:44:25.629Z,8.23
2018-09-12T18:46:54.665Z,8.98
2018-09-12T18:49:23.766Z,12.80
2018-09-12T18:51:52.868Z,18.55
2018-09-12T18:54:21.885Z,17.48
2018-09-12T18:56:50.951Z,11.25
2018-09-12T18:59:20.007Z,10.50
2018-09-12T19:01:49.168Z,9.35
2018-09-12T19:04:18.197Z,8.80
2018-09-12T19:06:47.252Z,7.85
2018-09-12T19:09:16.526Z,8.13
2018-09-12T19:11:45.620Z,12.60
2018-09-12T19:14:14.686Z,22.60
2018-09-12T19:16:43.688Z,31.70
2018-09-12T19:19:12.716Z,17.73
2018-09-12T19:21:41.756Z,12.00
2018-09-12T19:24:10.792Z,11.68
2018-09-12T19:26:39.798Z,8.93
2018-09-12T19:29:08.883Z,10.55
2018-09-12T19:31:37.849Z,19.42
2018-09-12T19:34:06.855Z,16.52
2018-09-12T19:36:36.039Z,25.25
2018-09-12T19:39:07.475Z,19.50
2018-09-12T19:41:36.642Z,11.78
2018-09-12T19:44:05.736Z,23.80
2018-09-12T19:46:35.056Z,10.58
2018-09-12T19:49:04.110Z,9.78
2018-09-12T19:51:33.112Z,8.95
2018-09-12T19:54:02.167Z,11.08
2018-09-12T19:56:31.265Z,25.55
2018-09-12T19:59:00.291Z,8.73
2018-09-12T20:01:29.259Z,8.10
2018-09-12T20:03:58.339Z,46.40
2018-09-12T20:06:27.351Z,22.27
2018-09-12T20:08:56.407Z,11.93
2018-09-12T20:11:25.421Z,11.30
2018-09-12T20:13:55.219Z,11.48
2018-09-12T20:16:24.493Z,9.83
2018-09-12T20:18:53.751Z,26.90
2018-09-12T20:21:22.984Z,19.77
2018-09-12T20:23:52.242Z,21.50
2018-09-12T20:26:21.319Z,35.08
2018-09-12T20:28:51.199Z,18.62
2018-09-12T20:31:20.420Z,12.10
2018-09-12T20:33:49.442Z,32.15
2018-09-12T20:36:18.470Z,33.35
2018-09-12T20:38:47.529Z,20.72
2018-09-12T20:41:16.655Z,17.30
2018-09-12T20:43:45.715Z,15.55
2018-09-12T20:46:21.143Z,12.85
2018-09-12T20:48:50.155Z,10.30
2018-09-12T20:51:19.473Z,8.80
2018-09-12T20:53:48.514Z,9.53
2018-09-12T20:56:17.499Z,8.23
2018-09-12T20:58:46.763Z,9.03
2018-09-12T21:01:15.824Z,10.10
2018-09-12T21:03:44.842Z,8.98
2018-09-12T21:06:13.848Z,8.53
2018-09-12T21:08:43.011Z,8.45
2018-09-12T21:11:12.153Z,8.50
2018-09-12T21:13:41.174Z,8.40
2018-09-12T21:16:10.229Z,9.30
2018-09-12T21:18:39.284Z,9.35
2018-09-12T21:21:08.270Z,8.23
2018-09-12T21:23:37.256Z,8.25
2018-09-12T21:26:06.329Z,8.35
2018-09-12T21:28:35.266Z,8.43
2018-09-12T21:31:04.261Z,8.38
2018-09-12T21:33:33.303Z,8.23
2018-09-12T21:36:02.427Z,8.00
2018-09-12T21:38:31.415Z,8.28
2018-09-12T21:41:00.810Z,8.83
2018-09-12T21:43:29.787Z,9.70
2018-09-12T21:45:58.905Z,8.55
2018-09-12T21:48:28.068Z,9.20
2018-09-12T21:50:57.051Z,8.63
2018-09-12T21:53:26.139Z,8.83
2018-09-12T21:55:55.231Z,8.60
2018-09-12T21:58:24.248Z,8.43
2018-09-12T22:00:53.283Z,8.93
2018-09-12T22:03:22.478Z,8.63
2018-09-12T22:05:51.466Z,8.83
2018-09-12T22:08:20.427Z,8.75
2018-09-12T22:10:49.502Z,8.60
2018-09-12T22:13:18.612Z,8.43
2018-09-12T22:15:47.695Z,8.20
2018-09-12T22:18:16.862Z,9.03
2018-09-12T22:20:45.884Z,8.38
2018-09-12T22:23:14.814Z,8.23
2018-09-12T22:25:43.874Z,8.40
2018-09-12T22:28:12.962Z,8.33
2018-09-12T22:30:41.978Z,8.55
2018-09-12T22:33:11.020Z,8.25
2018-09-12T22:35:39.473Z,8.20
2018-09-12T22:38:08.582Z,8.40
2018-09-12T22:40:37.589Z,8.58
2018-09-12T22:43:07.706Z,8.23
2018-09-12T22:45:36.291Z,8.33
2018-09-12T22:48:04.875Z,8.83
2018-09-12T22:50:34.149Z,8.35
2018-09-12T22:53:03.279Z,8.70
2018-09-12T22:55:32.387Z,8.65
2018-09-12T22:58:01.469Z,7.87
2018-09-12T23:00:29.987Z,8.70
2018-09-12T23:02:58.530Z,7.87
2018-09-12T23:05:27.536Z,7.87
2018-09-12T23:07:56.562Z,7.90
2018-09-12T23:10:25.558Z,8.00
2018-09-12T23:12:54.566Z,8.03
2018-09-12T23:15:23.699Z,8.00
2018-09-12T23:17:52.790Z,8.33
2018-09-12T23:20:21.786Z,7.65
2018-09-12T23:22:50.980Z,8.58
2018-09-12T23:25:19.504Z,7.37
2018-09-12T23:27:48.004Z,7.87
2018-09-12T23:30:17.066Z,7.65
2018-09-12T23:32:46.133Z,7.42
2018-09-12T23:35:15.263Z,7.35
2018-09-12T23:37:44.263Z,6.97
2018-09-12T23:40:12.719Z,7.90
2018-09-12T23:42:41.177Z,7.70
2018-09-12T23:45:09.672Z,8.07
2018-09-12T23:47:38.378Z,8.50
2018-09-12T23:50:07.057Z,7.87
2018-09-12T23:52:35.473Z,7.77
2018-09-12T23:55:04.000Z,8.20
2018-09-12T23:57:32.502Z,7.63
